createdAt,value
2023-05-10T00:07:57.468Z,3.28
2023-05-10T00:13:00.585Z,3.20
2023-05-10T00:18:03.601Z,3.67
2023-05-10T00:23:07.611Z,3.78
2023-05-10T00:28:10.123Z,3.23
2023-05-10T00:33:13.830Z,2.92
2023-05-10T00:38:19.311Z,2.55
2023-05-10T00:43:21.846Z,3.20
2023-05-10T00:48:24.881Z,3.55
2023-05-10T00:53:29.679Z,3.07
2023-05-10T00:58:32.238Z,2.85
2023-05-10T01:03:35.149Z,3.28
2023-05-10T01:08:39.889Z,2.97
2023-05-10T01:13:46.374Z,2.85
2023-05-10T01:18:49.938Z,3.00
2023-05-10T01:24:32.713Z,3.40
2023-05-10T01:30:17.300Z,3.00
2023-05-10T01:35:32.062Z,3.27
2023-05-10T01:40:46.368Z,3.53
2023-05-10T01:46:01.906Z,4.03
2023-05-10T01:51:07.745Z,3.07
2023-05-10T01:56:12.319Z,3.25
2023-05-10T02:01:16.355Z,3.97
2023-05-10T02:06:25.018Z,3.50
2023-05-10T02:11:30.413Z,3.03
2023-05-10T02:16:34.105Z,3.10
2023-05-10T02:21:41.050Z,2.92
2023-05-10T02:26:46.230Z,3.40
2023-05-10T02:31:53.664Z,2.97
2023-05-10T02:36:58.823Z,3.65
2023-05-10T02:42:03.237Z,3.77
2023-05-10T02:47:06.021Z,3.17
2023-05-10T02:52:10.951Z,3.40
2023-05-10T02:57:18.371Z,3.00
2023-05-10T03:02:22.108Z,3.80
2023-05-10T03:07:26.366Z,3.37
2023-05-10T03:12:41.594Z,3.50
2023-05-10T03:17:53.115Z,3.70
2023-05-10T03:23:08.539Z,3.63
2023-05-10T03:28:12.525Z,3.70
2023-05-10T03:33:15.526Z,4.17
2023-05-10T03:38:22.877Z,4.00
2023-05-10T03:43:28.627Z,4.30
2023-05-10T03:48:32.796Z,3.83
2023-05-10T03:53:37.124Z,4.93
2023-05-10T03:58:39.980Z,4.30
2023-05-10T04:03:45.687Z,4.28
2023-05-10T04:08:53.208Z,4.40
2023-05-10T04:13:55.958Z,4.20
2023-05-10T04:18:58.749Z,4.38
2023-05-10T04:24:03.286Z,4.40
2023-05-10T04:29:06.125Z,4.20
2023-05-10T04:34:09.000Z,3.97
2023-05-10T04:39:13.210Z,4.00
2023-05-10T04:44:15.952Z,4.90
2023-05-10T04:49:18.448Z,4.77
2023-05-10T04:54:22.736Z,4.13
2023-05-10T04:59:25.635Z,4.53
2023-05-10T05:04:28.522Z,4.03
2023-05-10T05:09:32.752Z,3.90
2023-05-10T05:14:36.371Z,4.77
2023-05-10T05:19:39.349Z,4.50
2023-05-10T05:24:43.627Z,4.78
2023-05-10T05:29:53.232Z,4.37
2023-05-10T05:34:57.247Z,4.93
2023-05-10T05:40:15.768Z,3.55
2023-05-10T05:45:30.412Z,4.20
2023-05-10T05:50:38.062Z,3.70
2023-05-10T05:56:08.481Z,4.00
2023-05-10T06:01:18.616Z,3.83
2023-05-10T06:06:22.391Z,3.93
2023-05-10T06:12:46.234Z,3.33
2023-05-10T06:18:53.532Z,3.70
2023-05-10T06:24:05.170Z,3.57
2023-05-10T06:29:24.916Z,3.85
2023-05-10T06:34:40.471Z,3.42
2023-05-10T06:39:57.477Z,3.17
2023-05-10T06:45:04.715Z,2.80
2023-05-10T06:50:22.677Z,3.33
2023-05-10T06:55:54.274Z,3.80
2023-05-10T07:01:14.119Z,2.88
2023-05-10T07:06:33.852Z,2.72
2023-05-10T07:11:53.470Z,2.90
2023-05-10T07:17:27.502Z,2.97
2023-05-10T07:22:35.131Z,2.33
2023-05-10T07:27:44.901Z,2.45
2023-05-10T07:32:59.829Z,2.00
2023-05-10T07:38:43.236Z,2.33
2023-05-10T07:44:34.488Z,1.75
2023-05-10T07:50:40.906Z,2.70
2023-05-10T07:56:12.905Z,2.40
2023-05-10T08:01:23.175Z,1.95
2023-05-10T08:06:40.013Z,2.67
2023-05-10T08:11:44.506Z,2.33
2023-05-10T08:16:50.405Z,2.22
2023-05-10T08:22:06.894Z,2.92
2023-05-10T08:27:13.634Z,2.73
2023-05-10T08:32:21.093Z,2.38
2023-05-10T08:37:45.087Z,2.55
2023-05-10T08:43:16.317Z,1.90
2023-05-10T08:48:32.465Z,2.17
2023-05-10T08:53:50.655Z,2.22
2023-05-10T08:59:03.095Z,2.63
2023-05-10T09:04:21.926Z,1.90
2023-05-10T09:09:30.403Z,2.78
2023-05-10T09:14:40.038Z,1.83
2023-05-10T09:19:58.642Z,2.03
2023-05-10T09:25:17.718Z,2.80
2023-05-10T09:30:38.268Z,1.70
2023-05-10T09:35:46.764Z,2.90
2023-05-10T09:41:03.705Z,1.95
2023-05-10T09:46:24.660Z,1.92
2023-05-10T09:51:32.316Z,1.53
2023-05-10T09:56:45.969Z,1.80
2023-05-10T10:02:02.044Z,2.03
2023-05-10T10:07:07.102Z,2.20
2023-05-10T10:12:13.298Z,1.60
2023-05-10T10:17:17.745Z,1.95
2023-05-10T10:22:21.440Z,1.90
2023-05-10T10:27:44.964Z,2.13
2023-05-10T10:33:34.908Z,1.75
2023-05-10T10:39:15.161Z,1.90
2023-05-10T10:44:38.570Z,2.30
2023-05-10T10:50:08.834Z,2.00
2023-05-10T10:55:19.338Z,7.57
2023-05-10T11:00:32.367Z,1.85
2023-05-10T11:05:44.401Z,1.80
2023-05-10T11:11:06.875Z,2.60
2023-05-10T11:16:30.207Z,2.22
2023-05-10T11:21:51.249Z,2.40
2023-05-10T11:27:11.234Z,3.20
2023-05-10T11:32:20.796Z,1.90
2023-05-10T11:37:31.872Z,1.77
2023-05-10T11:42:39.382Z,2.00
2023-05-10T11:47:53.307Z,1.90
2023-05-10T11:53:06.653Z,1.60
2023-05-10T11:58:19.832Z,2.07
2023-05-10T12:03:35.787Z,1.73
2023-05-10T12:08:55.545Z,2.28
2023-05-10T12:14:16.854Z,2.10
2023-05-10T12:19:26.636Z,1.75
2023-05-10T12:24:37.417Z,1.80
2023-05-10T12:29:50.035Z,1.57
2023-05-10T12:34:55.511Z,2.03
2023-05-10T12:40:02.320Z,1.80
2023-05-10T12:45:14.011Z,2.03
2023-05-10T12:50:26.867Z,1.67
2023-05-10T12:55:33.773Z,2.00
2023-05-10T13:00:50.720Z,2.60
2023-05-10T13:06:10.470Z,2.00
2023-05-10T13:11:22.130Z,1.45
2023-05-10T13:16:54.507Z,2.35
2023-05-10T13:22:07.315Z,1.70
2023-05-10T13:27:17.676Z,2.37
2023-05-10T13:32:35.014Z,2.17
2023-05-10T13:37:53.873Z,2.15
2023-05-10T13:43:03.845Z,1.93
2023-05-10T13:48:07.524Z,1.45
2023-05-10T13:53:12.405Z,2.08
2023-05-10T13:58:20.882Z,2.17
2023-05-10T14:03:42.001Z,1.88
2023-05-10T14:08:46.800Z,2.58
2023-05-10T14:13:51.876Z,2.40
2023-05-10T14:18:54.716Z,2.50
2023-05-10T14:24:02.075Z,2.20
2023-05-10T14:29:04.798Z,1.90
2023-05-10T14:34:10.212Z,2.03
2023-05-10T14:39:25.599Z,2.30
2023-05-10T14:44:29.511Z,2.05
2023-05-10T14:49:32.100Z,2.03
2023-05-10T14:55:10.425Z,2.30
2023-05-10T15:00:15.060Z,2.10
2023-05-10T15:05:18.706Z,2.00
2023-05-10T15:10:23.504Z,1.70
2023-05-10T15:15:26.562Z,1.90
2023-05-10T15:20:31.515Z,2.05
2023-05-10T15:25:36.057Z,1.83
2023-05-10T15:30:38.745Z,1.88
2023-05-10T15:35:41.652Z,1.60
2023-05-10T15:40:47.870Z,1.57
2023-05-10T15:45:50.768Z,1.75
2023-05-10T15:50:53.459Z,2.10
2023-05-10T15:55:57.507Z,1.77
2023-05-10T16:01:00.275Z,1.33
2023-05-10T16:06:04.524Z,1.88
2023-05-10T16:11:09.294Z,1.70
2023-05-10T16:16:12.098Z,2.00
2023-05-10T16:21:14.828Z,1.60
2023-05-10T16:26:18.898Z,1.75
2023-05-10T16:31:21.617Z,1.97
2023-05-10T16:36:24.392Z,1.63
2023-05-10T16:41:28.466Z,2.00
2023-05-10T16:46:33.450Z,1.97
2023-05-10T16:51:36.078Z,2.00
2023-05-10T16:56:41.649Z,1.90
2023-05-10T17:01:44.438Z,1.80
2023-05-10T17:06:47.636Z,2.00
2023-05-10T17:11:51.789Z,2.13
2023-05-10T17:16:54.998Z,1.50
2023-05-10T17:21:57.973Z,1.80
2023-05-10T17:27:02.103Z,1.90
2023-05-10T17:32:05.263Z,1.92
2023-05-10T17:37:12.200Z,2.40
2023-05-10T17:42:16.598Z,2.00
2023-05-10T17:47:19.440Z,2.03
2023-05-10T17:52:22.311Z,2.33
2023-05-10T17:57:26.605Z,2.10
2023-05-10T18:02:29.286Z,2.40
2023-05-10T18:07:32.342Z,2.15
2023-05-10T18:12:36.592Z,2.50
2023-05-10T18:17:39.375Z,2.55
2023-05-10T18:22:42.246Z,2.42
2023-05-10T18:27:46.449Z,2.47
2023-05-10T18:32:49.350Z,2.10
2023-05-10T18:37:52.835Z,2.85
2023-05-10T18:42:56.979Z,2.45
2023-05-10T18:48:00.102Z,2.57
2023-05-10T18:53:03.848Z,2.63
2023-05-10T18:58:08.025Z,2.63
2023-05-10T19:03:10.773Z,2.40
2023-05-10T19:08:17.037Z,2.50
2023-05-10T19:13:21.147Z,2.90
2023-05-10T19:18:23.831Z,2.63
2023-05-10T19:23:27.283Z,3.20
2023-05-10T19:28:31.677Z,3.10
2023-05-10T19:33:34.222Z,3.22
2023-05-10T19:38:37.670Z,3.07
2023-05-10T19:43:41.993Z,3.03
2023-05-10T19:48:46.638Z,2.78
2023-05-10T19:53:49.372Z,3.63
2023-05-10T19:58:53.408Z,2.30
2023-05-10T20:03:56.010Z,2.60
2023-05-10T20:08:58.624Z,3.03
2023-05-10T20:14:03.953Z,2.60
2023-05-10T20:19:06.914Z,2.72
2023-05-10T20:24:09.836Z,3.08
2023-05-10T20:29:14.043Z,3.17
2023-05-10T20:34:19.869Z,3.25
2023-05-10T20:39:22.817Z,3.95
2023-05-10T20:44:27.151Z,3.00
2023-05-10T20:49:33.218Z,3.53
2023-05-10T20:54:35.981Z,3.47
2023-05-10T20:59:40.047Z,3.67
2023-05-10T21:04:44.612Z,3.20
2023-05-10T21:09:47.586Z,2.63
2023-05-10T21:14:52.032Z,2.70
2023-05-10T21:19:54.669Z,2.78
2023-05-10T21:24:57.230Z,3.25
2023-05-10T21:30:01.746Z,2.83
2023-05-10T21:35:05.126Z,3.05
2023-05-10T21:40:09.086Z,4.20
2023-05-10T21:45:13.417Z,2.80
2023-05-10T21:50:16.102Z,3.08
2023-05-10T21:55:19.221Z,2.80
2023-05-10T22:00:23.354Z,3.13
2023-05-10T22:05:26.149Z,2.40
2023-05-10T22:10:28.891Z,2.63
2023-05-10T22:15:34.847Z,2.70
2023-05-10T22:20:38.402Z,3.20
2023-05-10T22:25:40.961Z,2.57
2023-05-10T22:30:45.031Z,2.50
2023-05-10T22:35:48.133Z,4.68
2023-05-10T22:40:50.891Z,2.53
2023-05-10T22:45:54.994Z,2.70
2023-05-10T22:50:57.583Z,2.80
2023-05-10T22:56:00.580Z,2.60
2023-05-10T23:01:05.344Z,2.50
2023-05-10T23:06:08.224Z,2.10
2023-05-10T23:11:11.128Z,2.00
2023-05-10T23:16:15.287Z,2.30
2023-05-10T23:21:18.048Z,2.65
2023-05-10T23:26:20.641Z,2.40
2023-05-10T23:31:24.982Z,2.53
2023-05-10T23:36:29.211Z,3.03
2023-05-10T23:41:31.797Z,2.23
2023-05-10T23:46:36.011Z,2.37
2023-05-10T23:51:38.577Z,2.40
2023-05-10T23:56:41.427Z,2.27
